Tobias Krause

Olheiro - Bayern Munich
6 Ago 2028
Domingo
Processo

Personalidade

Adaptabilidade (17) Ambição (9) Controvérsia (5) Lealdade (3) Pressão (5) Profissionalismo (19) Espírito Esportivo (7) Temperamento (1)

Perfil

Estilo de Treinamento Democrático
Licença Continental C
Determinação 9
Gestão de Pessoas 15
Motivação 16
Disciplina 15
Satisfação no Trabalho
100%
Fadiga
0%
Função Olheiro
Salário 39.9K p/s
Contrato 14.03.2030

Desempenho

Comportamento Bom
Eficácia do Treinamento
63%
Desenvolvimento do Jogador
50%
Prevenção de Lesões
50%
Implementação Tática
90%

Eventos Recentes

Participou de uma reunião de recrutamento agora
Participou de uma reunião de recrutamento agora
Participou de uma reunião de recrutamento 7d atrás
Participou de uma reunião de recrutamento 7d atrás
Participou de uma reunião de recrutamento 7d atrás
Recomendou um alvo de transferência 7d atrás
Participou de uma reunião de recrutamento 14d atrás
Recomendou um alvo de transferência 14d atrás

Monitorando agora

121
Jogador Clube Status Habilidade Confiança Observado Última observação Último voto
Woo-Yeong Jeong Union Berlin Perdido 141 / 140 79% 1 05.06.2028 -
William Saliba Arsenal Ativo 183 / 179 40% 11 31.05.2028 -
Boubacar Kamara Aston Villa Ativo 172 / 167 40% 17 31.05.2028 -
Achraf Hakimi Paris Saint-Germain Ativo 187 / 180 40% 7 31.05.2028 -
Sandro Tonali Tottenham Ativo 175 / 174 40% 5 29.05.2028 -
Federico Valverde Real Madrid Ativo 176 / 178 40% 5 29.05.2028 -
Matheus Nunes Manchester City Ativo 166 / 161 40% 11 28.05.2028 -
Rodri Barcelona Ativo 176 / 176 40% 10 28.05.2028 -
Manu Koné AS Roma Ativo 167 / 167 40% 15 28.05.2028 -
Enzo Fernández Manchester City Ativo 178 / 173 40% 19 24.05.2028 -
Frenkie de Jong Barcelona Ativo 174 / 171 40% 7 24.05.2028 -
Martín Zubimendi Arsenal Ativo 166 / 167 40% 10 24.05.2028 -
Miloš Kerkez Liverpool Ativo 162 / 164 40% 21 18.05.2028 -
Youri Tielemans Manchester United Ativo 169 / 164 40% 7 18.05.2028 -
Benjamin White Arsenal Ativo 162 / 160 40% 3 18.05.2028 -
Reece James Chelsea Ativo 174 / 176 40% 5 16.05.2028 -
Pedri Barcelona Ativo 184 / 180 40% 21 15.05.2028 -
Alexis Mac Allister Liverpool Ativo 170 / 166 40% 11 14.05.2028 -
Dayot Upamecano Bayer Leverkusen Ativo 169 / 167 40% 7 06.05.2028 -
Rúben Dias Manchester City Ativo 177 / 175 40% 11 05.05.2028 -
Jeremie Frimpong Liverpool Ativo 165 / 163 40% 10 03.05.2028 -
Jurriën Timber Arsenal Ativo 170 / 167 40% 15 03.05.2028 -
Aurélien Tchouaméni Real Madrid Ativo 174 / 173 40% 17 02.05.2028 -
Gabriel Arsenal Ativo 176 / 172 40% 5 02.05.2028 -
Willian Pacho Paris Saint-Germain Ativo 171 / 170 40% 16 18.04.2028 -
Nico González Newcastle United Ativo 169 / 166 40% 9 14.04.2028 -
João Neves Paris Saint-Germain Ativo 170 / 173 40% 8 08.04.2028 -
Moisés Caicedo Chelsea Ativo 176 / 172 40% 5 29.03.2028 -
Jules Koundé Barcelona Ativo 169 / 164 40% 2 18.02.2028 -
Joško Gvardiol Manchester City Ativo 169 / 169 40% 12 07.02.2028 -
Ferran Torres Paris Saint-Germain Ativo 171 / 169 40% 5 25.01.2028 -
Julián Álvarez Atlético Madrid Ativo 175 / 172 40% 4 25.01.2028 -
Hugo Ekitiké Liverpool Ativo 166 / 166 40% 3 25.01.2028 -
Kylian Mbappé Real Madrid Perdido 194 / 195 40% 1 19.01.2028 -
Raphinha Barcelona Ativo 179 / 180 40% 1 19.01.2028 -
Bradley Barcola Liverpool Ativo 167 / 166 40% 1 19.01.2028 -
Eduardo Camavinga Real Madrid Ativo 171 / 170 40% 16 24.08.2027 -
Lucas Chevalier AC Milan Ativo 168 / 166 40% 1 23.08.2027 -
Levi Colwill Chelsea Ativo 159 / 163 40% 8 04.08.2027 -
Ryan Gravenberch Liverpool Ativo 162 / 163 40% 17 01.08.2027 -
Nadiem Amiri Mainz 05 Ativo 147 / 147 76% 1 02.06.2027 Aprovar
Jarrad Branthwaite Everton Ativo 152 / 156 40% 12 30.05.2027 -
Amadou Onana Aston Villa Ativo 157 / 153 40% 3 29.05.2027 -
Marc Guéhi Manchester City Ativo 163 / 168 40% 2 20.05.2027 -
Tino Livramento Newcastle United Ativo 157 / 160 40% 9 19.05.2027 -
Curtis Jones Inter Ativo 153 / 155 40% 3 18.05.2027 -
Gavi Barcelona Ativo 154 / 163 40% 18 17.05.2027 -
Vitinha Paris Saint-Germain Ativo 180 / 176 40% 3 17.05.2027 -
Johnny Cardoso Atlético Madrid Ativo 151 / 156 40% 6 14.05.2027 -
Guillaume Restes Toulouse FC Ativo 136 / 143 40% 1 12.05.2027 -
Berke Özer LOSC Lille Ativo 135 / 135 40% 1 12.05.2027 -
David Raum RB Leipzig Ativo 152 / 156 40% 6 11.05.2027 -
Luiz Júnior Villarreal Ativo 148 / 147 40% 3 09.05.2027 -
Sven Botman Newcastle United Ativo 161 / 159 40% 2 09.05.2027 -
Leo Román Deportivo La Coruña Ativo 152 / 147 40% 9 06.05.2027 -
Zion Suzuki Aston Villa Ativo 146 / 147 40% 3 06.05.2027 -
Khéphren Thuram Juventus Ativo 163 / 155 40% 1 04.05.2027 -
Noussair Mazraoui Manchester United Ativo 152 / 149 40% 5 02.05.2027 -
Rodrygo Real Madrid Ativo 164 / 166 40% 4 30.04.2027 -
Matheus Cunha Manchester United Ativo 156 / 155 40% 4 30.04.2027 -
Andrés Martín Racing Santander Ativo 134 / 136 40% 1 30.04.2027 -
Isaac Romero Sevilla Ativo 146 / 141 40% 2 18.04.2027 -
Nicolas Jackson Aston Villa Ativo 150 / 146 40% 1 18.04.2027 -
Antoine Semenyo Manchester City Ativo 165 / 156 40% 1 17.04.2027 -
Leon Goretzka Aston Villa Ativo 154 / 152 40% 2 16.04.2027 -
Loïc Badé Bayer Leverkusen Ativo 155 / 153 40% 1 01.04.2027 -
Joseph Leclercq Tottenham Ativo 159 / 151 40% 12 27.03.2027 -
Maduka Okoye Udinese Ativo 139 / 140 40% 5 27.03.2027 -
Marvin Keller Chelsea Ativo 142 / 143 40% 5 26.03.2027 -
Julen Agirrezabala Real Sociedad Ativo 146 / 143 40% 3 25.03.2027 -
Matthijs de Ligt Manchester United Ativo 161 / 157 40% 3 24.03.2027 -
Mile Svilar AS Roma Ativo 166 / 162 40% 9 17.03.2027 -
Karl Hein Werder Bremen Ativo 140 / 140 40% 5 17.03.2027 -
Mads Hermansen West Ham United Ativo 138 / 139 40% 2 16.03.2027 -
Jan Paul van Hecke Tottenham Ativo 157 / 155 40% 1 04.03.2027 -
Wesley Fofana Chelsea Ativo 158 / 164 40% 1 04.03.2027 -
Adam Hložek TSG Hoffenheim Ativo 133 / 135 40% 4 27.02.2027 -
Iliman N'Diaye Everton Ativo 158 / 159 40% 2 27.02.2027 -
Pau Víctor Braga Ativo 140 / 136 40% 3 27.02.2027 -
Yehvann Diouf OGC Nice Ativo 140 / 137 40% 3 21.02.2027 -
Keisuke Osako Sanfrecce Hiroshima Ativo 145 / 138 40% 1 20.02.2027 -
Takefusa Kubo VfB Stuttgart Perdido 158 / 155 40% 1 19.02.2027 -
Senne Lammens Manchester United Ativo 152 / 150 40% 10 18.02.2027 -
Elia Caprile Cagliari Ativo 149 / 142 40% 4 10.02.2027 -
Matvey Safonov Paris Saint-Germain Ativo 151 / 152 40% 6 09.02.2027 -
James Trafford Leeds United Ativo 142 / 146 40% 5 09.02.2027 -
Kai Havertz Arsenal Ativo 164 / 157 40% 3 31.01.2027 -
Roberto Fernández Braga Ativo 146 / 137 40% 1 30.01.2027 -
Sota Kitano Red Bull Salzburg Ativo 120 / 128 40% 5 29.01.2027 -
Rayan Philippe Hamburger SV Ativo 135 / 131 40% 1 26.01.2027 -
Trent Alexander-Arnold Real Madrid Ativo 165 / 163 40% 1 11.01.2027 -
Lautaro Martínez Inter Ativo 173 / 167 40% 2 31.12.2026 -
Dani Olmo Barcelona Ativo 166 / 166 40% 1 31.12.2026 -
Mike Maignan AC Milan Ativo 166 / 165 40% 6 27.12.2026 Observar
Alex Meret Napoli Ativo 151 / 152 40% 4 27.12.2026 -
Nico O'Reilly Manchester City Ativo 149 / 154 40% 7 23.12.2026 -
David Raya Arsenal Ativo 162 / 165 40% 7 21.12.2026 Observar
Kepa Arrizabalaga Arsenal Ativo 151 / 151 40% 3 21.12.2026 -
Rayan Cherki Manchester City Ativo 163 / 160 40% 5 19.12.2026 -
Destiny Udogie Tottenham Ativo 152 / 148 40% 2 19.12.2026 -
Kobbie Mainoo Manchester United Ativo 151 / 152 40% 2 17.12.2026 -
Jordan Pickford Everton Ativo 155 / 153 40% 8 13.12.2026 -
Dean Henderson Crystal Palace Ativo 151 / 146 40% 5 12.12.2026 -
Ousmane Diomande Nottingham Forest Ativo 150 / 155 40% 2 08.12.2026 -
Elliot Anderson Manchester City Ativo 158 / 150 40% 2 05.12.2026 -
Álvaro Carreras Real Madrid Ativo 146 / 152 40% 1 05.12.2026 -
Caoimhin Kelleher Brentford Ativo 156 / 149 40% 7 03.12.2026 -
Yorbe Vertessen Red Bull Salzburg Ativo 131 / 128 40% 1 01.12.2026 -
Pablo Barrios Atlético Madrid Ativo 153 / 155 40% 4 27.11.2026 -
Nicolò Rovella Lazio Ativo 149 / 151 40% 3 24.11.2026 -
Ivan Provedel Inter Ativo 146 / 145 40% 4 10.11.2026 -
Gabriel Martinelli Arsenal Ativo 157 / 162 40% 3 03.11.2026 -
Dušan Vlahović Hamburger SV Perdido 155 / 161 40% 1 31.10.2026 -
Juan-José Perea Zurich Ativo 120 / 118 40% 4 30.10.2026 -
Ian Maatsen Aston Villa Ativo 151 / 146 40% 1 10.10.2026 -
Adam Wharton Crystal Palace Ativo 152 / 149 40% 1 30.09.2026 -
Wessam Abou Ali Columbus Crew Ativo 137 / 130 40% 1 30.09.2026 -
Srđan Hrstić Altach Ativo 109 / 111 40% 1 30.09.2026 -
Julian von Moos Grasshopper Ativo 120 / 112 40% 1 25.09.2026 -
Andrin Hunziker St. Gallen Ativo 104 / 110 40% 2 24.09.2026 -
Ayo Akinola Vaduz Ativo 113 / 111 40% 1 11.09.2026 -